createdAt,value
2022-10-19T00:01:14.449Z,11.30
2022-10-19T00:03:42.138Z,11.30
2022-10-19T00:06:18.373Z,11.30
2022-10-19T00:08:45.686Z,11.30
2022-10-19T00:11:13.359Z,11.20
2022-10-19T00:13:40.657Z,11.20
2022-10-19T00:16:11.463Z,11.30
2022-10-19T00:18:39.175Z,11.20
2022-10-19T00:21:10.603Z,11.20
2022-10-19T00:23:37.778Z,11.20
2022-10-19T00:26:04.941Z,11.20
2022-10-19T00:28:31.753Z,11.10
2022-10-19T00:31:03.640Z,11.10
2022-10-19T00:33:30.455Z,11.00
2022-10-19T00:35:57.087Z,11.00
2022-10-19T00:38:23.726Z,11.00
2022-10-19T00:40:50.689Z,10.90
2022-10-19T00:43:23.129Z,10.80
2022-10-19T00:45:50.154Z,10.80
2022-10-19T00:48:32.913Z,10.80
2022-10-19T00:51:00.428Z,10.80
2022-10-19T00:53:30.392Z,10.80
2022-10-19T00:55:58.333Z,10.70
2022-10-19T00:58:25.073Z,10.70
2022-10-19T01:00:51.858Z,10.70
2022-10-19T01:03:18.625Z,10.70
2022-10-19T01:05:45.510Z,10.70
2022-10-19T01:08:12.790Z,10.80
2022-10-19T01:11:04.513Z,10.80
2022-10-19T01:14:02.888Z,10.70
2022-10-19T01:16:35.475Z,10.70
2022-10-19T01:19:34.043Z,10.60
2022-10-19T01:22:55.491Z,10.60
2022-10-19T01:25:49.403Z,10.50
2022-10-19T01:28:40.839Z,10.50
2022-10-19T01:31:27.294Z,10.40
2022-10-19T01:34:10.765Z,10.40
2022-10-19T01:36:43.127Z,10.30
2022-10-19T01:39:24.495Z,10.30
2022-10-19T01:42:16.306Z,10.20
2022-10-19T01:44:51.946Z,10.20
2022-10-19T01:47:28.540Z,10.10
2022-10-19T01:50:30.390Z,10.20
2022-10-19T01:52:58.716Z,10.10
2022-10-19T01:55:27.109Z,10.10
2022-10-19T01:58:08.242Z,10.00
2022-10-19T02:00:40.999Z,10.10
2022-10-19T02:03:08.943Z,10.00
2022-10-19T02:05:38.026Z,10.00
2022-10-19T02:08:12.066Z,10.00
2022-10-19T02:10:41.497Z,10.00
2022-10-19T02:13:09.341Z,10.00
2022-10-19T02:15:38.989Z,9.90
2022-10-19T02:18:07.176Z,9.90
2022-10-19T02:20:37.062Z,9.90
2022-10-19T02:23:07.198Z,9.90
2022-10-19T02:25:34.599Z,9.90
2022-10-19T02:28:03.540Z,9.80
2022-10-19T02:30:30.329Z,9.80
2022-10-19T02:32:57.027Z,9.80
2022-10-19T02:35:23.752Z,9.80
2022-10-19T02:37:50.613Z,9.80
2022-10-19T02:40:17.384Z,9.80
2022-10-19T02:42:50.231Z,9.70
2022-10-19T02:45:23.645Z,9.80
2022-10-19T02:47:54.756Z,9.70
2022-10-19T02:50:22.220Z,9.70
2022-10-19T02:52:48.829Z,9.70
2022-10-19T02:55:15.649Z,9.60
2022-10-19T02:57:42.319Z,9.60
2022-10-19T03:00:09.548Z,9.60
2022-10-19T03:02:36.314Z,9.50
2022-10-19T03:05:04.211Z,9.50
2022-10-19T03:07:31.006Z,9.40
2022-10-19T03:09:57.930Z,9.40
2022-10-19T03:12:24.575Z,9.30
2022-10-19T03:14:51.219Z,9.30
2022-10-19T03:17:17.947Z,9.20
2022-10-19T03:19:44.778Z,9.20
2022-10-19T03:22:12.595Z,9.20
2022-10-19T03:24:40.055Z,9.20
2022-10-19T03:27:06.671Z,9.10
2022-10-19T03:29:33.305Z,9.10
2022-10-19T03:31:59.917Z,9.00
2022-10-19T03:34:26.555Z,9.00
2022-10-19T03:36:53.204Z,8.90
2022-10-19T03:39:22.148Z,8.90
2022-10-19T03:41:48.755Z,8.90
2022-10-19T03:44:15.381Z,8.80
2022-10-19T03:46:42.121Z,8.80
2022-10-19T03:49:09.400Z,8.80
2022-10-19T03:51:36.562Z,8.70
2022-10-19T03:54:08.325Z,8.70
2022-10-19T03:56:36.020Z,8.70
2022-10-19T03:59:04.762Z,8.70
2022-10-19T04:01:40.165Z,8.60
2022-10-19T04:04:18.702Z,8.50
2022-10-19T04:06:48.691Z,8.40
2022-10-19T04:09:17.731Z,8.10
2022-10-19T04:11:44.831Z,8.10
2022-10-19T04:14:19.221Z,8.20
2022-10-19T04:16:53.733Z,8.20
2022-10-19T04:19:20.331Z,8.20
2022-10-19T04:21:49.251Z,8.20
2022-10-19T04:24:18.043Z,8.20
2022-10-19T04:26:56.195Z,8.30
2022-10-19T04:29:29.407Z,8.30
2022-10-19T04:31:57.861Z,8.20
2022-10-19T04:34:24.625Z,8.20
2022-10-19T04:36:52.548Z,8.10
2022-10-19T04:39:19.226Z,8.10
2022-10-19T04:41:45.862Z,8.10
2022-10-19T04:44:12.572Z,8.10
2022-10-19T04:46:39.220Z,8.00
2022-10-19T04:49:06.757Z,8.00
2022-10-19T04:51:33.698Z,7.90
2022-10-19T04:54:00.338Z,7.80
2022-10-19T04:56:27.698Z,7.80
2022-10-19T04:58:57.367Z,7.80
2022-10-19T05:01:25.624Z,7.70
2022-10-19T05:06:30.268Z,7.60
2022-10-19T05:08:57.288Z,7.60
2022-10-19T05:11:24.167Z,7.60
2022-10-19T05:13:51.490Z,7.60
2022-10-19T05:16:20.624Z,7.60
2022-10-19T05:18:49.015Z,7.60
2022-10-19T05:21:16.488Z,7.50
2022-10-19T05:23:43.515Z,7.50
2022-10-19T05:26:17.352Z,7.50
2022-10-19T05:28:59.256Z,7.50
2022-10-19T05:31:31.645Z,7.40
2022-10-19T05:33:59.235Z,7.40
2022-10-19T05:36:35.089Z,7.40
2022-10-19T05:39:11.640Z,7.40
2022-10-19T05:41:38.515Z,7.30
2022-10-19T05:44:05.783Z,7.30
2022-10-19T05:46:33.355Z,7.20
2022-10-19T05:49:00.760Z,7.20
2022-10-19T05:51:28.388Z,7.20
2022-10-19T05:53:56.334Z,7.10
2022-10-19T05:56:25.952Z,7.10
2022-10-19T05:58:53.220Z,7.00
2022-10-19T06:01:20.528Z,7.00
2022-10-19T06:03:50.953Z,6.90
2022-10-19T06:06:17.588Z,6.90
2022-10-19T06:08:45.740Z,6.90
2022-10-19T06:11:18.160Z,6.80
2022-10-19T06:13:46.747Z,6.80
2022-10-19T06:16:15.541Z,6.80
2022-10-19T06:18:42.670Z,6.70
2022-10-19T06:21:13.309Z,6.70
2022-10-19T06:26:12.738Z,6.70
2022-10-19T06:28:41.280Z,6.60
2022-10-19T06:31:09.207Z,6.60
2022-10-19T06:33:36.303Z,6.60
2022-10-19T06:36:11.433Z,6.60
2022-10-19T06:38:38.279Z,6.50
2022-10-19T06:41:05.084Z,6.50
2022-10-19T06:43:31.817Z,6.50
2022-10-19T06:45:58.950Z,6.50
2022-10-19T06:48:25.587Z,6.50
2022-10-19T06:51:00.403Z,6.50
2022-10-19T06:53:29.027Z,6.50
2022-10-19T06:55:59.517Z,6.40
2022-10-19T06:58:26.207Z,6.40
2022-10-19T07:00:57.503Z,6.40
2022-10-19T07:03:25.530Z,6.40
2022-10-19T07:05:57.298Z,6.40
2022-10-19T07:08:24.635Z,6.40
2022-10-19T07:10:59.293Z,6.40
2022-10-19T07:13:27.673Z,6.40
2022-10-19T07:15:58.624Z,6.40
2022-10-19T07:18:26.084Z,6.40
2022-10-19T07:21:00.426Z,6.40
2022-10-19T07:23:29.252Z,6.40
2022-10-19T07:26:05.965Z,6.40
2022-10-19T07:28:33.755Z,6.40
2022-10-19T07:31:08.647Z,6.40
2022-10-19T07:33:35.520Z,6.40
2022-10-19T07:36:05.116Z,6.40
2022-10-19T07:38:32.543Z,6.50
2022-10-19T07:41:03.010Z,6.50
2022-10-19T07:43:29.786Z,6.50
2022-10-19T07:46:04.934Z,6.50
2022-10-19T07:48:31.683Z,6.60
2022-10-19T07:51:03.002Z,6.60
2022-10-19T07:53:29.976Z,6.60
2022-10-19T07:56:02.299Z,6.70
2022-10-19T07:58:28.888Z,6.70
2022-10-19T08:01:15.798Z,6.80
2022-10-19T08:09:08.139Z,6.90
2022-10-19T08:11:36.164Z,7.00
2022-10-19T08:14:03.716Z,7.10
2022-10-19T08:16:40.353Z,7.10
2022-10-19T08:19:09.660Z,7.10
2022-10-19T08:21:38.152Z,7.20
2022-10-19T08:24:05.549Z,7.20
2022-10-19T08:26:33.692Z,7.30
2022-10-19T08:29:06.433Z,7.30
2022-10-19T08:31:33.485Z,7.40
2022-10-19T08:34:00.288Z,7.40
2022-10-19T08:36:28.298Z,7.50
2022-10-19T08:38:54.899Z,7.60
2022-10-19T08:41:23.444Z,7.60
2022-10-19T08:44:03.989Z,7.70
2022-10-19T08:46:36.107Z,7.80
2022-10-19T08:49:03.135Z,7.80
2022-10-19T08:51:37.384Z,8.00
2022-10-19T08:54:12.134Z,8.00
2022-10-19T08:57:01.849Z,8.10
2022-10-19T08:59:51.919Z,8.20
2022-10-19T09:02:31.815Z,8.30
2022-10-19T09:05:04.361Z,8.40
2022-10-19T09:07:44.861Z,8.50
2022-10-19T09:10:17.733Z,8.60
2022-10-19T09:12:47.295Z,8.80
2022-10-19T09:15:19.246Z,8.90
2022-10-19T09:17:46.252Z,9.10
2022-10-19T09:20:20.775Z,9.20
2022-10-19T09:22:56.528Z,9.40
2022-10-19T09:25:25.068Z,9.60
2022-10-19T09:28:20.601Z,9.70
2022-10-19T09:30:51.348Z,9.90
2022-10-19T09:33:30.335Z,10.00
2022-10-19T09:35:58.933Z,10.20
2022-10-19T09:38:28.498Z,10.40
2022-10-19T09:41:23.491Z,10.50
2022-10-19T09:43:54.499Z,10.70
2022-10-19T09:47:00.283Z,10.90
2022-10-19T09:49:41.701Z,11.00
2022-10-19T09:52:39.748Z,11.20
2022-10-19T09:55:07.926Z,11.40
2022-10-19T09:57:45.255Z,11.50
2022-10-19T10:00:23.072Z,11.70
2022-10-19T10:02:51.988Z,11.80
2022-10-19T10:05:31.172Z,12.00
2022-10-19T10:07:58.055Z,12.10
2022-10-19T10:10:30.596Z,12.30
2022-10-19T10:13:03.777Z,12.40
2022-10-19T10:15:42.542Z,12.60
2022-10-19T10:18:15.978Z,12.70
2022-10-19T10:21:00.965Z,12.90
2022-10-19T10:23:32.008Z,13.10
2022-10-19T10:26:00.565Z,13.20
2022-10-19T10:28:29.879Z,13.30
2022-10-19T10:31:06.340Z,13.50
2022-10-19T10:33:45.381Z,13.60
2022-10-19T10:36:12.998Z,13.70
2022-10-19T10:38:45.989Z,13.80
2022-10-19T10:41:15.853Z,14.10
2022-10-19T10:44:04.630Z,14.20
2022-10-19T10:46:50.280Z,14.30
2022-10-19T10:49:21.964Z,14.50
2022-10-19T10:51:54.073Z,14.60
2022-10-19T10:54:31.135Z,14.80
2022-10-19T10:57:13.051Z,14.90
2022-10-19T10:59:54.215Z,15.10
2022-10-19T11:02:39.908Z,15.30
2022-10-19T11:05:24.986Z,15.40
2022-10-19T11:08:29.289Z,15.60
2022-10-19T11:11:02.840Z,15.70
2022-10-19T11:13:42.363Z,15.80
2022-10-19T11:16:21.862Z,15.90
2022-10-19T11:18:56.816Z,16.00
2022-10-19T11:21:23.387Z,16.20
2022-10-19T11:24:17.491Z,16.40
2022-10-19T11:26:44.169Z,16.50
2022-10-19T11:29:29.557Z,16.70
2022-10-19T11:31:57.076Z,16.80
2022-10-19T11:34:38.131Z,17.00
2022-10-19T11:37:26.607Z,17.00
2022-10-19T11:40:11.857Z,17.10
2022-10-19T11:42:53.258Z,17.10
2022-10-19T11:45:30.890Z,17.30
2022-10-19T11:48:43.728Z,17.40
2022-10-19T11:51:29.484Z,17.50
2022-10-19T11:54:14.748Z,17.60
2022-10-19T11:57:03.187Z,17.70
2022-10-19T11:59:43.222Z,17.80
2022-10-19T12:02:18.529Z,17.90
2022-10-19T12:05:13.443Z,18.00
2022-10-19T12:08:01.396Z,18.20
2022-10-19T12:11:27.525Z,18.40
2022-10-19T12:13:59.446Z,18.50
2022-10-19T12:16:45.920Z,18.60
2022-10-19T12:19:32.475Z,18.60
2022-10-19T12:22:02.502Z,18.70
2022-10-19T12:24:30.926Z,18.80
2022-10-19T12:26:59.540Z,18.90
2022-10-19T12:29:31.276Z,19.00
2022-10-19T12:32:01.439Z,19.10
2022-10-19T12:34:49.217Z,19.10
2022-10-19T12:37:38.457Z,19.20
2022-10-19T12:40:10.353Z,19.30
2022-10-19T12:42:51.593Z,19.40
2022-10-19T12:45:38.373Z,19.50
2022-10-19T12:48:11.152Z,19.60
2022-10-19T12:50:49.660Z,19.60
2022-10-19T12:56:09.678Z,19.70
2022-10-19T12:58:47.947Z,19.90
2022-10-19T13:01:22.299Z,19.90
2022-10-19T13:03:54.187Z,19.90
2022-10-19T13:06:23.799Z,20.00
2022-10-19T13:08:53.311Z,20.00
2022-10-19T13:11:24.253Z,20.00
2022-10-19T13:13:57.401Z,20.10
2022-10-19T13:16:30.048Z,20.10
2022-10-19T13:18:59.472Z,20.10
2022-10-19T13:21:44.552Z,20.20
2022-10-19T13:24:26.035Z,20.30
2022-10-19T13:27:04.805Z,20.40
2022-10-19T13:29:37.201Z,20.40
2022-10-19T13:32:31.861Z,20.40
2022-10-19T13:35:23.875Z,20.30
2022-10-19T13:38:09.467Z,20.20
2022-10-19T13:40:38.371Z,20.10
2022-10-19T13:43:05.198Z,20.10
2022-10-19T13:45:32.578Z,20.20
2022-10-19T13:48:17.758Z,20.30
2022-10-19T13:50:56.633Z,20.20
2022-10-19T13:54:09.435Z,20.20
2022-10-19T13:56:41.884Z,20.10
2022-10-19T13:59:32.208Z,20.00
2022-10-19T14:02:35.901Z,20.10
2022-10-19T14:05:05.790Z,19.90
2022-10-19T14:07:44.296Z,19.80
2022-10-19T14:10:25.160Z,19.80
2022-10-19T14:13:00.495Z,19.80
2022-10-19T14:15:33.980Z,19.80
2022-10-19T14:18:03.737Z,19.80
2022-10-19T14:20:36.334Z,19.70
2022-10-19T14:23:19.258Z,19.60
2022-10-19T14:26:20.113Z,19.60
2022-10-19T14:28:52.877Z,19.60
2022-10-19T14:31:33.316Z,19.50
2022-10-19T14:34:02.856Z,19.50
2022-10-19T14:36:36.156Z,19.40
2022-10-19T14:39:03.848Z,19.40
2022-10-19T14:44:39.616Z,19.30
2022-10-19T14:47:20.899Z,19.20
2022-10-19T14:49:48.032Z,19.20
2022-10-19T14:52:22.036Z,19.10
2022-10-19T14:54:53.193Z,19.00
2022-10-19T14:57:32.519Z,19.00
2022-10-19T15:00:03.143Z,18.90
2022-10-19T15:02:38.641Z,18.80
2022-10-19T15:05:13.886Z,18.80
2022-10-19T15:07:42.974Z,18.70
2022-10-19T15:10:21.076Z,18.70
2022-10-19T15:12:50.293Z,18.70
2022-10-19T15:15:24.762Z,18.60
2022-10-19T15:18:01.779Z,18.60
2022-10-19T15:20:44.138Z,18.50
2022-10-19T15:23:33.756Z,18.50
2022-10-19T15:26:02.888Z,18.40
2022-10-19T15:28:39.179Z,18.20
2022-10-19T15:31:26.503Z,18.10
2022-10-19T15:33:58.405Z,18.00
2022-10-19T15:36:26.530Z,18.00
2022-10-19T15:39:17.923Z,17.90
2022-10-19T15:41:51.499Z,17.80
2022-10-19T15:44:33.618Z,17.70
2022-10-19T15:47:15.397Z,17.60
2022-10-19T15:49:41.946Z,17.50
2022-10-19T15:52:23.162Z,17.40
2022-10-19T15:54:51.583Z,17.40
2022-10-19T15:57:25.449Z,17.40
2022-10-19T15:59:53.339Z,17.40
2022-10-19T16:02:19.946Z,17.40
2022-10-19T16:04:46.645Z,17.30
2022-10-19T16:07:18.916Z,17.30
2022-10-19T16:09:45.549Z,17.30
2022-10-19T16:12:12.163Z,17.20
2022-10-19T16:14:38.841Z,17.10
2022-10-19T16:17:05.554Z,17.00
2022-10-19T16:19:32.246Z,17.00
2022-10-19T16:21:58.875Z,16.90
2022-10-19T16:24:25.563Z,16.80
2022-10-19T16:26:52.176Z,16.70
2022-10-19T16:29:18.843Z,16.60
2022-10-19T16:31:45.435Z,16.50
2022-10-19T16:34:12.067Z,16.40
2022-10-19T16:36:38.697Z,16.30
2022-10-19T16:39:05.392Z,16.20
2022-10-19T16:41:32.184Z,16.10
2022-10-19T16:43:58.988Z,15.90
2022-10-19T16:46:26.075Z,15.90
2022-10-19T16:48:53.367Z,15.80
2022-10-19T16:51:50.908Z,15.70
2022-10-19T16:54:20.000Z,15.60
2022-10-19T16:56:48.200Z,15.50
2022-10-19T16:59:17.015Z,15.30
2022-10-19T17:01:45.547Z,15.20
2022-10-19T17:04:13.998Z,15.20
2022-10-19T17:06:41.295Z,15.00
2022-10-19T17:09:40.905Z,14.90
2022-10-19T17:11:54.943Z,14.80
2022-10-19T17:14:21.567Z,14.70
2022-10-19T17:16:48.223Z,14.60
2022-10-19T17:19:14.895Z,14.50
2022-10-19T17:21:42.276Z,14.40
2022-10-19T17:24:18.655Z,14.30
2022-10-19T17:26:46.952Z,14.20
2022-10-19T17:29:14.095Z,14.20
2022-10-19T17:31:42.236Z,14.00
2022-10-19T17:34:09.709Z,13.90
2022-10-19T17:39:17.648Z,13.70
2022-10-19T17:41:49.091Z,13.70
2022-10-19T17:44:17.160Z,13.60
2022-10-19T17:46:44.319Z,13.50
2022-10-19T17:49:11.166Z,13.40
2022-10-19T17:51:38.334Z,13.40
2022-10-19T17:54:08.987Z,13.30
2022-10-19T17:56:36.882Z,13.30
2022-10-19T17:59:04.541Z,13.20
2022-10-19T18:01:31.436Z,13.20
2022-10-19T18:03:58.142Z,13.10
2022-10-19T18:06:31.465Z,13.00
2022-10-19T18:08:59.782Z,12.90
2022-10-19T18:11:32.015Z,12.80
2022-10-19T18:14:00.254Z,12.80
2022-10-19T18:16:33.255Z,12.70
2022-10-19T18:19:01.587Z,12.70
2022-10-19T18:21:31.145Z,12.60
2022-10-19T18:24:00.405Z,12.50
2022-10-19T18:26:29.387Z,12.50
2022-10-19T18:28:57.175Z,12.40
2022-10-19T18:31:30.453Z,12.30
2022-10-19T18:33:59.630Z,12.20
2022-10-19T18:36:26.967Z,12.20
2022-10-19T18:38:55.681Z,12.20
2022-10-19T18:41:23.281Z,12.20
2022-10-19T18:43:55.555Z,12.10
2022-10-19T18:46:23.830Z,12.00
2022-10-19T18:48:50.759Z,12.00
2022-10-19T18:51:19.305Z,11.90
2022-10-19T18:53:46.891Z,11.90
2022-10-19T18:56:18.494Z,11.90
2022-10-19T18:58:45.391Z,11.80
2022-10-19T19:01:20.010Z,11.70
2022-10-19T19:03:51.489Z,11.70
2022-10-19T19:06:23.505Z,11.60
2022-10-19T19:08:50.223Z,11.60
2022-10-19T19:11:19.518Z,11.50
2022-10-19T19:13:57.525Z,11.50
2022-10-19T19:16:24.887Z,11.40
2022-10-19T19:18:51.537Z,11.30
2022-10-19T19:21:20.733Z,11.30
2022-10-19T19:23:48.911Z,11.30
2022-10-19T19:26:16.806Z,11.20
2022-10-19T19:28:46.284Z,11.20
2022-10-19T19:31:17.452Z,11.20
2022-10-19T19:33:45.870Z,11.10
2022-10-19T19:36:14.199Z,11.10
2022-10-19T19:38:41.020Z,11.10
2022-10-19T19:41:10.547Z,11.10
2022-10-19T19:43:38.032Z,11.00
2022-10-19T19:46:12.524Z,10.90
2022-10-19T19:48:40.404Z,10.90
2022-10-19T19:51:18.377Z,10.80
2022-10-19T19:53:46.477Z,10.80
2022-10-19T19:56:15.213Z,10.70
2022-10-19T19:58:42.603Z,10.70
2022-10-19T20:01:13.624Z,10.70
2022-10-19T20:03:41.631Z,10.60
2022-10-19T20:06:08.858Z,10.60
2022-10-19T20:08:36.802Z,10.50
2022-10-19T20:11:09.661Z,10.50
2022-10-19T20:13:36.745Z,10.50
2022-10-19T20:16:11.680Z,10.50
2022-10-19T20:18:39.751Z,10.40
2022-10-19T20:21:06.817Z,10.40
2022-10-19T20:23:33.813Z,10.30
2022-10-19T20:26:00.604Z,10.30
2022-10-19T20:28:28.095Z,10.30
2022-10-19T20:31:06.222Z,10.20
2022-10-19T20:33:34.660Z,10.20
2022-10-19T20:36:06.376Z,10.20
2022-10-19T20:38:34.622Z,10.20
2022-10-19T20:41:08.041Z,10.10
2022-10-19T20:43:37.052Z,10.00
2022-10-19T20:46:10.292Z,10.00
2022-10-19T20:48:37.048Z,10.10
2022-10-19T20:51:09.175Z,10.00
2022-10-19T20:53:35.950Z,10.00
2022-10-19T20:56:07.618Z,10.00
2022-10-19T20:58:35.147Z,10.00
2022-10-19T21:01:07.103Z,10.00
2022-10-19T21:03:33.880Z,9.90
2022-10-19T21:06:08.732Z,9.90
2022-10-19T21:08:36.477Z,9.90
2022-10-19T21:11:16.506Z,9.90
2022-10-19T21:13:43.928Z,9.90
2022-10-19T21:16:13.177Z,9.90
2022-10-19T21:18:40.310Z,9.80
2022-10-19T21:21:27.758Z,9.80
2022-10-19T21:23:58.622Z,9.80
2022-10-19T21:26:26.709Z,9.80
2022-10-19T21:28:53.736Z,9.80
2022-10-19T21:31:21.758Z,9.80
2022-10-19T21:33:48.751Z,9.80
2022-10-19T21:36:15.705Z,9.80
2022-10-19T21:38:43.003Z,9.80
2022-10-19T21:41:15.032Z,9.80
2022-10-19T21:43:41.679Z,9.80
2022-10-19T21:46:14.301Z,9.80
2022-10-19T21:48:41.743Z,9.80
2022-10-19T21:51:17.306Z,9.70
2022-10-19T21:53:44.459Z,9.70
2022-10-19T21:56:11.074Z,9.70
2022-10-19T21:58:38.243Z,9.70
2022-10-19T22:01:08.302Z,9.70
2022-10-19T22:03:34.909Z,9.70
2022-10-19T22:06:02.909Z,9.70
2022-10-19T22:08:29.585Z,9.70
2022-10-19T22:10:56.444Z,9.70
2022-10-19T22:13:23.038Z,9.70
2022-10-19T22:15:49.824Z,9.70
2022-10-19T22:18:16.551Z,9.70
2022-10-19T22:20:43.171Z,9.70
2022-10-19T22:23:09.802Z,9.70
2022-10-19T22:25:36.466Z,9.80
2022-10-19T22:28:03.426Z,9.80
2022-10-19T22:30:30.106Z,9.70
2022-10-19T22:32:56.792Z,9.70
2022-10-19T22:35:23.419Z,9.80
2022-10-19T22:37:50.051Z,9.80
2022-10-19T22:40:16.736Z,9.80
2022-10-19T22:42:43.402Z,9.80
2022-10-19T22:45:10.025Z,9.70
2022-10-19T22:47:37.126Z,9.70
2022-10-19T22:50:04.132Z,9.70
2022-10-19T22:52:30.759Z,9.70
2022-10-19T22:54:57.407Z,9.70
2022-10-19T22:57:24.145Z,9.70
2022-10-19T22:59:50.762Z,9.70
2022-10-19T23:02:17.364Z,9.70
2022-10-19T23:04:43.983Z,9.70
2022-10-19T23:09:38.627Z,9.70
2022-10-19T23:12:05.451Z,9.70
2022-10-19T23:14:32.087Z,9.70
2022-10-19T23:16:58.827Z,9.70
2022-10-19T23:19:25.464Z,9.70
2022-10-19T23:21:52.066Z,9.70
2022-10-19T23:24:18.654Z,9.60
2022-10-19T23:26:45.267Z,9.60
2022-10-19T23:29:11.851Z,9.60
2022-10-19T23:31:38.483Z,9.60
2022-10-19T23:34:05.084Z,9.70
2022-10-19T23:36:31.812Z,9.60
2022-10-19T23:38:58.900Z,9.60
2022-10-19T23:41:25.868Z,9.60
2022-10-19T23:43:52.487Z,9.60
2022-10-19T23:46:19.387Z,9.60
2022-10-19T23:48:46.025Z,9.60
2022-10-19T23:51:15.724Z,9.60
2022-10-19T23:53:44.113Z,9.60
2022-10-19T23:56:17.141Z,9.60
2022-10-19T23:58:44.323Z,9.60
